createdAt,value
2018-06-25T00:02:06.903Z,75.00
2018-06-25T00:04:40.971Z,74.99
2018-06-25T00:07:15.011Z,76.76
2018-06-25T00:09:49.068Z,77.00
2018-06-25T00:12:23.259Z,76.24
2018-06-25T00:14:57.329Z,75.69
2018-06-25T00:17:31.615Z,75.19
2018-06-25T00:20:05.788Z,74.83
2018-06-25T00:22:39.933Z,74.42
2018-06-25T00:25:13.896Z,74.80
2018-06-25T00:27:47.938Z,74.04
2018-06-25T00:30:21.967Z,73.85
2018-06-25T00:32:56.239Z,74.47
2018-06-25T00:35:30.143Z,74.17
2018-06-25T00:38:04.273Z,74.35
2018-06-25T00:40:38.222Z,74.95
2018-06-25T00:43:12.156Z,75.39
2018-06-25T00:45:46.079Z,75.57
2018-06-25T00:48:20.177Z,75.23
2018-06-25T00:50:54.137Z,74.90
2018-06-25T00:53:28.153Z,75.15
2018-06-25T00:56:02.073Z,74.70
2018-06-25T00:58:47.087Z,74.86
2018-06-25T01:01:21.012Z,75.05
2018-06-25T01:03:55.020Z,75.74
2018-06-25T01:06:28.961Z,76.51
2018-06-25T01:09:03.974Z,76.74
2018-06-25T01:11:37.912Z,77.10
2018-06-25T01:14:11.912Z,77.68
2018-06-25T01:16:45.807Z,78.30
2018-06-25T01:19:19.912Z,78.64
2018-06-25T01:21:54.043Z,78.46
2018-06-25T01:24:28.134Z,77.47
2018-06-25T01:27:02.172Z,77.91
2018-06-25T01:29:38.317Z,77.99
2018-06-25T01:32:12.212Z,78.85
2018-06-25T01:34:46.260Z,77.73
2018-06-25T01:37:20.215Z,77.25
2018-06-25T01:39:54.233Z,76.83
2018-06-25T01:42:28.259Z,76.67
2018-06-25T01:45:02.292Z,76.46
2018-06-25T01:47:36.269Z,75.95
2018-06-25T01:50:10.397Z,76.82
2018-06-25T01:52:44.327Z,75.57
2018-06-25T01:55:18.362Z,74.98
2018-06-25T01:57:52.327Z,75.02
2018-06-25T02:00:26.364Z,74.57
2018-06-25T02:03:00.356Z,75.15
2018-06-25T02:05:34.511Z,76.28
2018-06-25T02:08:08.543Z,76.34
2018-06-25T02:10:42.651Z,76.02
2018-06-25T02:13:16.639Z,74.56
2018-06-25T02:15:50.671Z,74.73
2018-06-25T02:18:24.596Z,74.93
2018-06-25T02:20:58.787Z,75.72
2018-06-25T02:23:32.856Z,77.13
2018-06-25T02:26:06.969Z,78.51
2018-06-25T02:28:40.909Z,77.70
2018-06-25T02:31:14.968Z,77.57
2018-06-25T02:33:48.934Z,76.70
2018-06-25T02:36:23.212Z,75.74
2018-06-25T02:38:57.512Z,76.72
2018-06-25T02:41:31.661Z,76.55
2018-06-25T02:44:06.372Z,76.69
2018-06-25T02:46:40.448Z,77.67
2018-06-25T02:49:14.365Z,77.06
2018-06-25T02:51:48.425Z,77.15
2018-06-25T02:54:22.475Z,77.40
2018-06-25T02:56:56.543Z,76.67
2018-06-25T02:59:30.604Z,76.97
2018-06-25T03:02:04.649Z,76.62
2018-06-25T03:04:38.642Z,76.36
2018-06-25T03:07:12.616Z,76.00
2018-06-25T03:09:46.692Z,75.94
2018-06-25T03:12:20.739Z,76.59
2018-06-25T03:14:54.747Z,76.19
2018-06-25T03:17:28.801Z,76.88
2018-06-25T03:20:03.151Z,75.94
2018-06-25T03:22:38.279Z,76.40
2018-06-25T03:25:12.315Z,76.57
2018-06-25T03:27:46.316Z,77.68
2018-06-25T03:30:20.204Z,79.39
2018-06-25T03:32:54.265Z,80.05
2018-06-25T03:35:28.244Z,80.86
2018-06-25T03:38:02.310Z,80.86
2018-06-25T03:40:36.273Z,81.06
2018-06-25T03:43:10.398Z,80.17
2018-06-25T03:45:44.665Z,81.33
2018-06-25T03:48:18.751Z,80.81
2018-06-25T03:50:52.833Z,81.12
2018-06-25T03:53:27.327Z,80.40
2018-06-25T03:56:01.454Z,79.89
2018-06-25T03:58:35.578Z,79.01
2018-06-25T04:01:09.892Z,78.51
2018-06-25T04:03:44.313Z,77.50
2018-06-25T04:06:18.482Z,76.74
2018-06-25T04:08:52.601Z,76.99
2018-06-25T04:11:26.474Z,75.21
2018-06-25T04:14:00.497Z,74.97
2018-06-25T04:16:34.486Z,76.21
2018-06-25T04:19:08.637Z,77.20
2018-06-25T04:21:42.512Z,77.29
2018-06-25T04:24:16.668Z,76.79
2018-06-25T04:26:50.722Z,75.06
2018-06-25T04:29:25.027Z,75.15
2018-06-25T04:31:58.993Z,74.85
2018-06-25T04:34:32.888Z,74.26
2018-06-25T04:37:06.759Z,74.12
2018-06-25T04:39:40.851Z,75.05
2018-06-25T04:42:14.965Z,73.39
2018-06-25T04:44:48.848Z,72.97
2018-06-25T04:47:22.841Z,72.62
2018-06-25T04:49:56.967Z,73.14
2018-06-25T04:52:30.870Z,73.85
2018-06-25T04:55:05.002Z,72.89
2018-06-25T04:57:39.136Z,73.04
2018-06-25T05:00:13.316Z,72.95
2018-06-25T05:02:47.420Z,73.68
2018-06-25T05:05:21.466Z,73.43
2018-06-25T05:07:55.391Z,73.84
2018-06-25T05:10:29.478Z,73.50
2018-06-25T05:13:03.429Z,73.13
2018-06-25T05:15:37.557Z,72.68
2018-06-25T05:18:11.476Z,70.38
2018-06-25T05:20:45.479Z,71.67
2018-06-25T05:23:19.695Z,70.04
2018-06-25T05:25:53.746Z,71.00
2018-06-25T05:28:27.768Z,68.77
2018-06-25T05:31:01.754Z,69.83
2018-06-25T05:33:35.616Z,71.52
2018-06-25T05:36:09.685Z,70.44
2018-06-25T05:38:43.613Z,70.16
2018-06-25T05:41:17.688Z,68.55
2018-06-25T05:43:51.524Z,69.68
2018-06-25T05:46:25.579Z,67.58
2018-06-25T05:48:59.513Z,67.81
2018-06-25T05:51:33.541Z,66.22
2018-06-25T05:54:07.495Z,66.42
2018-06-25T05:56:41.721Z,66.61
2018-06-25T05:59:15.729Z,64.78
2018-06-25T06:01:49.902Z,65.08
2018-06-25T06:04:23.820Z,64.42
2018-06-25T06:06:57.777Z,64.16
2018-06-25T06:09:31.868Z,64.18
2018-06-25T06:12:05.968Z,63.07
2018-06-25T06:14:40.053Z,60.73
2018-06-25T06:17:14.083Z,62.29
2018-06-25T06:19:48.003Z,62.85
2018-06-25T06:22:22.103Z,63.51
2018-06-25T06:24:56.134Z,62.39
2018-06-25T06:27:30.391Z,62.71
2018-06-25T06:30:04.425Z,64.63
2018-06-25T06:32:38.307Z,60.36
2018-06-25T06:35:12.246Z,63.74
2018-06-25T06:37:46.270Z,64.29
2018-06-25T06:40:20.367Z,64.71
2018-06-25T06:42:54.432Z,64.14
2018-06-25T06:45:29.346Z,64.71
2018-06-25T06:48:03.205Z,65.36
2018-06-25T06:50:37.332Z,64.78
2018-06-25T06:53:11.216Z,65.94
2018-06-25T06:55:45.131Z,66.77
2018-06-25T06:58:19.105Z,67.11
2018-06-25T07:00:53.084Z,67.76
2018-06-25T07:03:27.152Z,68.01
2018-06-25T07:06:01.009Z,68.87
2018-06-25T07:08:34.935Z,69.12
2018-06-25T07:11:08.993Z,69.72
2018-06-25T07:13:48.896Z,69.69
2018-06-25T07:16:22.961Z,69.45
2018-06-25T07:18:57.088Z,69.37
2018-06-25T07:21:31.075Z,69.61
2018-06-25T07:24:05.273Z,69.84
2018-06-25T07:26:39.184Z,69.06
2018-06-25T07:29:13.639Z,67.62
2018-06-25T07:31:47.583Z,66.08
2018-06-25T07:34:21.720Z,65.86
2018-06-25T07:36:55.935Z,62.73
2018-06-25T07:39:29.884Z,62.70
2018-06-25T07:42:03.872Z,60.89
2018-06-25T07:44:38.268Z,59.58
2018-06-25T07:47:12.605Z,60.03
2018-06-25T07:49:46.570Z,61.50
2018-06-25T07:52:20.535Z,62.39
2018-06-25T07:54:54.629Z,60.63
2018-06-25T07:57:28.618Z,61.54
2018-06-25T08:00:02.990Z,61.23
2018-06-25T08:02:37.071Z,61.51
2018-06-25T08:05:11.213Z,61.32
2018-06-25T08:07:45.184Z,59.92
2018-06-25T08:10:19.218Z,60.74
2018-06-25T08:12:53.160Z,60.93
2018-06-25T08:15:27.195Z,61.85
2018-06-25T08:18:01.134Z,61.80
2018-06-25T08:20:35.279Z,60.58
2018-06-25T08:23:09.243Z,61.04
2018-06-25T08:25:43.363Z,61.33
2018-06-25T08:28:17.278Z,60.73
2018-06-25T08:30:51.371Z,60.77
2018-06-25T08:33:25.303Z,62.39
2018-06-25T08:36:00.437Z,62.21
2018-06-25T08:38:34.520Z,61.13
2018-06-25T08:41:08.705Z,61.12
2018-06-25T08:43:42.648Z,61.07
2018-06-25T08:46:16.800Z,61.54
2018-06-25T08:48:50.725Z,61.37
2018-06-25T08:51:24.688Z,62.40
2018-06-25T08:53:58.906Z,64.91
2018-06-25T08:56:32.957Z,64.94
2018-06-25T08:59:06.921Z,65.04
2018-06-25T09:01:41.115Z,66.41
2018-06-25T09:04:14.976Z,64.43
2018-06-25T09:06:48.909Z,63.72
2018-06-25T09:09:22.835Z,62.86
2018-06-25T09:11:56.956Z,64.55
2018-06-25T09:14:30.934Z,61.73
2018-06-25T09:17:05.253Z,63.40
2018-06-25T09:19:39.286Z,64.54
2018-06-25T09:22:13.400Z,64.40
2018-06-25T09:24:47.485Z,63.07
2018-06-25T09:27:21.545Z,65.49
2018-06-25T09:29:55.663Z,65.33
2018-06-25T09:32:30.038Z,63.19
2018-06-25T09:35:04.040Z,64.16
2018-06-25T09:37:38.119Z,61.53
2018-06-25T09:40:12.204Z,60.95
2018-06-25T09:42:46.351Z,56.98
2018-06-25T09:45:20.231Z,60.54
2018-06-25T09:47:54.551Z,60.87
2018-06-25T09:50:28.598Z,63.10
2018-06-25T09:53:02.828Z,61.08
2018-06-25T09:55:36.878Z,62.02
2018-06-25T09:58:10.930Z,62.41
2018-06-25T10:01:18.734Z,63.33
2018-06-25T10:03:52.931Z,60.74
2018-06-25T10:06:26.966Z,62.55
2018-06-25T10:09:00.956Z,64.11
2018-06-25T10:11:34.885Z,59.43
2018-06-25T10:14:08.873Z,60.04
2018-06-25T10:16:43.030Z,59.25
2018-06-25T10:19:17.227Z,58.76
2018-06-25T10:21:51.151Z,56.65
2018-06-25T10:24:25.231Z,55.21
2018-06-25T10:26:59.247Z,54.97
2018-06-25T10:29:33.481Z,57.01
2018-06-25T10:32:07.342Z,55.89
2018-06-25T10:34:43.414Z,55.95
2018-06-25T10:37:17.465Z,53.52
2018-06-25T10:39:51.603Z,53.60
2018-06-25T10:42:25.951Z,52.91
2018-06-25T10:45:00.108Z,54.50
2018-06-25T10:47:34.036Z,58.30
2018-06-25T10:50:08.468Z,56.94
2018-06-25T10:52:42.367Z,58.27
2018-06-25T10:55:16.337Z,58.31
2018-06-25T10:57:50.333Z,56.77
2018-06-25T11:00:24.458Z,57.31
2018-06-25T11:02:58.609Z,55.09
2018-06-25T11:05:33.012Z,55.33
2018-06-25T11:08:07.104Z,54.11
2018-06-25T11:10:41.208Z,52.20
2018-06-25T11:13:15.105Z,54.33
2018-06-25T11:15:49.086Z,54.13
2018-06-25T11:18:23.079Z,55.52
2018-06-25T11:20:57.062Z,54.43
2018-06-25T11:23:31.029Z,54.35
2018-06-25T11:26:04.979Z,54.12
2018-06-25T11:28:39.073Z,53.21
2018-06-25T11:31:13.072Z,52.97
2018-06-25T11:33:46.983Z,53.21
2018-06-25T11:36:21.277Z,54.04
2018-06-25T11:38:55.286Z,54.65
2018-06-25T11:41:29.186Z,55.48
2018-06-25T11:44:03.243Z,55.65
2018-06-25T11:46:31.264Z,53.51
2018-06-25T11:48:59.285Z,54.19
2018-06-25T11:51:27.261Z,55.47
2018-06-25T11:53:55.337Z,56.24
2018-06-25T11:56:23.272Z,54.89
2018-06-25T11:58:51.208Z,53.34
2018-06-25T12:01:19.186Z,53.31
2018-06-25T12:03:47.122Z,52.48
2018-06-25T12:06:15.047Z,51.79
2018-06-25T12:08:43.040Z,50.52
2018-06-25T12:11:10.982Z,50.90
2018-06-25T12:13:38.948Z,52.00
2018-06-25T12:16:07.001Z,52.70
2018-06-25T12:18:35.079Z,50.52
2018-06-25T12:21:03.747Z,48.88
2018-06-25T12:23:31.729Z,51.25
2018-06-25T12:25:59.791Z,47.54
2018-06-25T12:28:27.720Z,48.80
2018-06-25T12:30:55.693Z,49.02
2018-06-25T12:33:23.618Z,48.24
2018-06-25T12:35:51.641Z,47.42
2018-06-25T12:38:19.846Z,46.35
2018-06-25T12:40:47.751Z,46.74
2018-06-25T12:43:15.697Z,44.76
2018-06-25T12:45:43.657Z,45.44
2018-06-25T12:48:11.577Z,46.24
2018-06-25T12:50:39.501Z,47.14
2018-06-25T12:53:07.462Z,48.14
2018-06-25T12:55:35.464Z,51.53
2018-06-25T12:58:03.454Z,51.97
2018-06-25T13:00:31.553Z,49.26
2018-06-25T13:02:59.521Z,49.52
2018-06-25T13:05:27.455Z,48.62
2018-06-25T13:07:55.580Z,51.49
2018-06-25T13:10:23.561Z,48.21
2018-06-25T13:12:51.523Z,46.56
2018-06-25T13:15:19.480Z,47.87
2018-06-25T13:17:47.452Z,49.39
2018-06-25T13:20:15.435Z,49.32
2018-06-25T13:22:43.459Z,50.81
2018-06-25T13:25:11.475Z,48.76
2018-06-25T13:27:39.400Z,48.51
2018-06-25T13:30:07.395Z,50.04
2018-06-25T13:32:35.321Z,50.27
2018-06-25T13:35:03.287Z,51.09
2018-06-25T13:37:31.267Z,50.63
2018-06-25T13:39:59.287Z,51.08
2018-06-25T13:42:27.287Z,49.23
2018-06-25T13:44:55.395Z,48.85
2018-06-25T13:47:23.353Z,50.47
2018-06-25T13:49:51.310Z,49.15
2018-06-25T13:52:19.268Z,49.77
2018-06-25T13:54:47.196Z,51.55
2018-06-25T13:57:15.192Z,51.47
2018-06-25T13:59:43.183Z,49.73
2018-06-25T14:02:11.264Z,50.14
2018-06-25T14:04:39.247Z,51.79
2018-06-25T14:07:07.329Z,51.60
2018-06-25T14:09:35.276Z,52.01
2018-06-25T14:12:03.350Z,51.11
2018-06-25T14:14:31.422Z,51.30
2018-06-25T14:16:59.421Z,51.62
2018-06-25T14:19:27.425Z,53.08
2018-06-25T14:21:55.521Z,51.82
2018-06-25T14:24:28.858Z,52.18
2018-06-25T14:27:02.787Z,51.21
2018-06-25T14:29:30.821Z,51.36
2018-06-25T14:32:04.379Z,52.21
2018-06-25T14:34:32.421Z,50.99
2018-06-25T14:37:00.482Z,51.99
2018-06-25T14:39:28.468Z,51.52
2018-06-25T14:41:59.491Z,51.16
2018-06-25T14:44:27.424Z,49.55
2018-06-25T14:46:55.425Z,51.30
2018-06-25T14:49:23.495Z,51.63
2018-06-25T14:51:51.438Z,53.36
2018-06-25T14:54:19.441Z,53.45
2018-06-25T14:56:47.383Z,54.00
2018-06-25T14:59:15.367Z,54.06
2018-06-25T15:01:43.340Z,50.86
2018-06-25T15:04:11.268Z,50.20
2018-06-25T15:06:39.187Z,48.50
2018-06-25T15:09:09.483Z,47.23
2018-06-25T15:11:37.469Z,47.28
2018-06-25T15:14:05.635Z,49.65
2018-06-25T15:16:33.685Z,51.94
2018-06-25T15:19:01.674Z,51.57
2018-06-25T15:21:29.629Z,52.98
2018-06-25T15:23:57.659Z,52.22
2018-06-25T15:26:25.584Z,53.87
2018-06-25T15:28:53.519Z,52.97
2018-06-25T15:31:21.582Z,52.38
2018-06-25T15:33:49.500Z,51.42
2018-06-25T15:36:17.434Z,51.10
2018-06-25T15:38:45.690Z,52.34
2018-06-25T15:41:13.648Z,52.70
2018-06-25T15:43:45.084Z,52.15
2018-06-25T15:46:13.068Z,52.37
2018-06-25T15:48:40.994Z,53.83
2018-06-25T15:51:09.515Z,54.75
2018-06-25T15:53:38.336Z,54.72
2018-06-25T15:56:06.297Z,54.85
2018-06-25T15:58:34.252Z,55.25
2018-06-25T16:01:02.221Z,56.08
2018-06-25T16:03:30.179Z,56.44
2018-06-25T16:06:01.431Z,55.95
2018-06-25T16:08:29.820Z,55.49
2018-06-25T16:10:57.833Z,56.57
2018-06-25T16:13:25.769Z,57.76
2018-06-25T16:15:53.796Z,58.70
2018-06-25T16:18:21.702Z,58.97
2018-06-25T16:20:49.682Z,59.42
2018-06-25T16:23:17.655Z,59.97
2018-06-25T16:25:45.603Z,60.69
2018-06-25T16:28:13.543Z,61.09
2018-06-25T16:30:41.538Z,61.09
2018-06-25T16:33:09.487Z,60.95
2018-06-25T16:35:37.444Z,59.38
2018-06-25T16:38:05.728Z,59.95
2018-06-25T16:40:33.774Z,59.73
2018-06-25T16:43:01.771Z,60.01
2018-06-25T16:45:29.817Z,60.97
2018-06-25T16:47:57.764Z,60.40
2018-06-25T16:50:25.689Z,60.01
2018-06-25T16:52:53.664Z,61.07
2018-06-25T16:55:21.612Z,60.42
2018-06-25T16:57:49.563Z,61.65
2018-06-25T17:00:17.717Z,64.66
2018-06-25T17:02:45.642Z,63.70
2018-06-25T17:05:13.563Z,64.34
2018-06-25T17:07:41.565Z,65.63
2018-06-25T17:10:09.522Z,65.61
2018-06-25T17:12:37.491Z,69.17
2018-06-25T17:15:05.477Z,72.21
2018-06-25T17:17:33.617Z,74.05
2018-06-25T17:20:01.577Z,73.55
2018-06-25T17:22:29.642Z,75.12
2018-06-25T17:24:57.561Z,77.89
2018-06-25T17:27:25.703Z,78.51
2018-06-25T17:29:53.656Z,79.35
2018-06-25T17:32:21.741Z,78.18
2018-06-25T17:34:49.829Z,79.52
2018-06-25T17:37:22.397Z,80.54
2018-06-25T17:39:52.255Z,79.77
2018-06-25T17:42:20.204Z,81.15
2018-06-25T17:44:48.292Z,81.52
2018-06-25T17:47:16.396Z,82.90
2018-06-25T17:49:44.430Z,82.63
2018-06-25T17:52:12.732Z,82.03
2018-06-25T17:54:46.220Z,82.09
2018-06-25T17:57:14.413Z,80.21
2018-06-25T17:59:42.768Z,80.28
2018-06-25T18:02:10.739Z,80.25
2018-06-25T18:04:38.890Z,81.26
2018-06-25T18:07:06.918Z,82.40
2018-06-25T18:09:34.878Z,83.06
2018-06-25T18:12:02.950Z,83.37
2018-06-25T18:14:31.081Z,84.14
2018-06-25T18:16:59.219Z,83.06
2018-06-25T18:19:27.228Z,78.88
2018-06-25T18:21:55.209Z,79.53
2018-06-25T18:24:23.195Z,78.85
2018-06-25T18:26:51.350Z,81.44
2018-06-25T18:29:19.294Z,82.53
2018-06-25T18:31:47.270Z,82.10
2018-06-25T18:34:15.371Z,82.29
2018-06-25T18:36:43.396Z,82.45
2018-06-25T18:39:12.951Z,82.27
2018-06-25T18:41:41.867Z,82.41
2018-06-25T18:44:10.003Z,83.28
2018-06-25T18:46:38.091Z,83.40
2018-06-25T18:49:06.559Z,84.53
2018-06-25T18:51:34.658Z,85.39
2018-06-25T18:54:02.709Z,84.67
2018-06-25T18:56:30.774Z,85.18
2018-06-25T18:58:59.687Z,85.46
2018-06-25T19:01:27.787Z,83.91
2018-06-25T19:03:55.795Z,83.44
2018-06-25T19:06:24.049Z,85.61
2018-06-25T19:08:51.991Z,85.80
2018-06-25T19:11:20.018Z,84.96
2018-06-25T19:13:48.103Z,84.97
2018-06-25T19:16:16.343Z,84.46
2018-06-25T19:18:44.769Z,84.58
2018-06-25T19:21:13.218Z,84.42
2018-06-25T19:23:41.183Z,85.80
2018-06-25T19:26:09.178Z,86.01
2018-06-25T19:28:37.148Z,86.31
2018-06-25T19:31:05.381Z,85.86
2018-06-25T19:33:33.424Z,84.49
2018-06-25T19:36:01.390Z,84.31
2018-06-25T19:38:29.328Z,83.59
2018-06-25T19:40:57.335Z,83.86
2018-06-25T19:43:25.290Z,78.55
2018-06-25T19:45:53.315Z,78.86
2018-06-25T19:48:21.334Z,82.22
2018-06-25T19:50:49.376Z,80.73
2018-06-25T19:53:17.383Z,79.48
2018-06-25T19:55:45.543Z,81.26
2018-06-25T19:58:13.487Z,83.74
2018-06-25T20:00:47.619Z,82.99
2018-06-25T20:03:21.680Z,81.16
2018-06-25T20:05:55.930Z,82.41
2018-06-25T20:08:29.791Z,82.96
2018-06-25T20:11:03.865Z,83.29
2018-06-25T20:13:37.803Z,84.34
2018-06-25T20:16:11.772Z,81.89
2018-06-25T20:18:45.712Z,80.81
2018-06-25T20:21:19.645Z,82.77
2018-06-25T20:23:53.671Z,84.00
2018-06-25T20:26:27.828Z,84.35
2018-06-25T20:29:01.947Z,84.57
2018-06-25T20:31:36.114Z,83.84
2018-06-25T20:34:10.141Z,80.14
2018-06-25T20:36:44.138Z,79.68
2018-06-25T20:39:18.090Z,81.03
2018-06-25T20:41:52.161Z,81.28
2018-06-25T20:44:26.252Z,79.51
2018-06-25T20:47:00.375Z,80.88
2018-06-25T20:49:34.288Z,82.00
2018-06-25T20:52:08.383Z,81.74
2018-06-25T20:54:42.261Z,83.29
2018-06-25T20:57:16.356Z,84.38
2018-06-25T20:59:50.501Z,83.87
2018-06-25T21:02:24.805Z,83.46
2018-06-25T21:04:58.742Z,83.43
2018-06-25T21:07:32.770Z,81.64
2018-06-25T21:10:06.858Z,82.77
2018-06-25T21:12:41.030Z,80.90
2018-06-25T21:15:15.107Z,80.97
2018-06-25T21:17:49.171Z,80.71
2018-06-25T21:20:23.514Z,82.55
2018-06-25T21:22:57.638Z,81.68
2018-06-25T21:25:31.711Z,79.90
2018-06-25T21:28:05.769Z,80.71
2018-06-25T21:30:39.671Z,81.96
2018-06-25T21:33:13.652Z,80.95
2018-06-25T21:35:47.716Z,80.61
2018-06-25T21:38:21.665Z,80.38
2018-06-25T21:40:55.606Z,80.00
2018-06-25T21:43:29.961Z,79.91
2018-06-25T21:46:04.241Z,80.64
2018-06-25T21:48:38.358Z,81.77
2018-06-25T21:51:12.372Z,82.72
2018-06-25T21:53:46.538Z,80.36
2018-06-25T21:56:20.549Z,81.60
2018-06-25T21:58:54.664Z,82.95
2018-06-25T22:01:28.660Z,83.84
2018-06-25T22:04:02.629Z,81.90
2018-06-25T22:06:36.598Z,81.46
2018-06-25T22:09:10.629Z,83.10
2018-06-25T22:11:44.648Z,84.04
2018-06-25T22:14:18.936Z,84.44
2018-06-25T22:16:52.995Z,84.70
2018-06-25T22:19:27.012Z,84.29
2018-06-25T22:22:01.043Z,84.02
2018-06-25T22:24:35.148Z,83.27
2018-06-25T22:27:09.061Z,82.79
2018-06-25T22:29:43.196Z,82.95
2018-06-25T22:32:17.160Z,84.23
2018-06-25T22:34:51.214Z,87.25
2018-06-25T22:37:25.091Z,87.33
2018-06-25T22:39:59.128Z,85.76
2018-06-25T22:42:35.038Z,86.31
2018-06-25T22:45:09.033Z,85.44
2018-06-25T22:47:42.981Z,85.36
2018-06-25T22:50:16.964Z,85.65
2018-06-25T22:52:51.024Z,85.93
2018-06-25T22:55:31.152Z,84.99
2018-06-25T22:58:05.130Z,84.77
2018-06-25T23:00:39.150Z,84.99
2018-06-25T23:03:13.129Z,84.65
2018-06-25T23:05:47.356Z,85.10
2018-06-25T23:08:21.260Z,83.65
2018-06-25T23:10:55.406Z,83.03
2018-06-25T23:13:29.423Z,83.80
2018-06-25T23:16:03.544Z,83.22
2018-06-25T23:18:37.679Z,83.41
2018-06-25T23:21:11.720Z,83.39
2018-06-25T23:23:45.621Z,82.98
2018-06-25T23:26:19.694Z,83.96
2018-06-25T23:28:53.849Z,83.03
2018-06-25T23:31:27.843Z,80.87
2018-06-25T23:34:01.673Z,82.25
2018-06-25T23:36:35.636Z,84.49
2018-06-25T23:39:11.039Z,85.56
2018-06-25T23:41:45.067Z,85.71
2018-06-25T23:44:19.217Z,86.39
2018-06-25T23:46:53.347Z,85.00
2018-06-25T23:49:27.261Z,85.38
2018-06-25T23:52:01.261Z,82.33
2018-06-25T23:54:35.256Z,83.31
2018-06-25T23:57:09.440Z,83.32
2018-06-25T23:59:43.305Z,83.58
